Time;durP1;ratioP1;P1;durP2;ratioP2;P2;SDS_P1;SDS_P2;PMS_P1;PMS_P2;Temp;Humidity;BMP_temperature;BMP_pressure;BME280_temperature;BME280_humidity;BME280_pressure;Samples;Min_cycle;Max_cycle;Signal;HPM_P1;HPM_P2
2023/01/23 00:04:31;;;;;;;18.10;13.47;;;;;;;0.61;59.83;101255.19;10382401;28;20247;-63
2023/01/23 00:09:32;;;;;;;17.97;15.20;;;;;;;0.84;59.19;101251.25;10392263;28;21021;-62
2023/01/23 00:14:34;;;;;;;18.50;13.70;;;;;;;0.21;59.82;101232.78;10404767;28;20589;-63
2023/01/23 00:19:36;;;;;;;19.37;14.43;;;;;;;0.29;61.24;101241.09;10412296;28;20236;-63
2023/01/23 00:24:37;;;;;;;19.03;14.00;;;;;;;0.63;58.66;101250.66;10404867;28;20292;-63
2023/01/23 00:29:39;;;;;;;18.67;14.17;;;;;;;1.03;59.39;101264.28;10406640;28;20970;-62
2023/01/23 00:34:41;;;;;;;16.53;13.33;;;;;;;0.18;60.01;101228.50;10404750;28;20258;-63
2023/01/23 00:39:44;;;;;;;21.93;14.47;;;;;;;0.95;60.17;101241.91;10407709;28;20242;-63
2023/01/23 00:44:46;;;;;;;21.47;15.13;;;;;;;-0.10;61.65;101216.81;10410844;28;20252;-63
2023/01/23 00:49:47;;;;;;;20.30;14.70;;;;;;;-0.46;62.02;101204.59;10404537;28;20264;-63
2023/01/23 00:54:49;;;;;;;20.13;14.77;;;;;;;0.64;59.65;101228.63;10403674;28;20234;-63
2023/01/23 00:59:51;;;;;;;20.37;14.63;;;;;;;0.23;61.55;101217.72;10410117;28;20613;-63
2023/01/23 01:04:52;;;;;;;22.90;15.00;;;;;;;0.26;61.21;101223.69;10403531;28;20237;-63
2023/01/23 01:09:54;;;;;;;19.20;15.20;;;;;;;0.08;62.00;101214.13;10407116;28;20245;-63
2023/01/23 01:14:56;;;;;;;23.67;16.30;;;;;;;0.08;62.06;101211.50;10409301;28;20238;-62
2023/01/23 01:19:57;;;;;;;20.80;15.13;;;;;;;-0.03;62.08;101219.94;10403211;28;20246;-63
2023/01/23 01:24:59;;;;;;;21.53;15.20;;;;;;;-0.38;62.56;101206.84;10402162;28;20232;-62
2023/01/23 01:30:01;;;;;;;20.10;14.50;;;;;;;0.17;61.45;101218.88;10409526;28;20777;-62
2023/01/23 01:35:05;;;;;;;18.63;14.03;;;;;;;0.27;60.95;101214.81;10405543;28;20248;-62
2023/01/23 01:40:12;;;;;;;18.60;13.40;;;;;;;-0.37;62.06;101218.19;10395111;28;20735;-63
2023/01/23 01:45:51;;;;;;;21.03;15.23;;;;;;;0.25;61.33;101231.66;10406475;28;20241;-61
2023/01/23 01:50:53;;;;;;;19.73;14.27;;;;;;;0.23;60.98;101225.63;10403254;28;20225;-63
2023/01/23 01:55:56;;;;;;;22.30;16.43;;;;;;;0.10;60.30;101222.78;10401857;28;20296;-63
2023/01/23 02:00:58;;;;;;;20.20;16.07;;;;;;;0.59;61.09;101243.84;10404508;28;20239;-63
2023/01/23 02:05:59;;;;;;;22.43;15.37;;;;;;;-0.11;61.52;101230.88;10406908;28;20733;-62
2023/01/23 02:11:02;;;;;;;18.77;14.53;;;;;;;0.08;61.19;101236.03;10402037;28;20244;-63
2023/01/23 02:16:08;;;;;;;26.20;15.80;;;;;;;0.44;61.40;101240.28;10413945;28;20721;-63
2023/01/23 02:21:12;;;;;;;21.77;15.23;;;;;;;0.49;59.57;101248.78;10410942;28;20252;-63
2023/01/23 02:26:21;;;;;;;20.57;14.07;;;;;;;1.04;59.55;101271.25;10407824;28;20846;-63
2023/01/23 02:31:22;;;;;;;22.43;14.50;;;;;;;1.50;58.03;101317.94;10410967;28;20238;-63
2023/01/23 02:36:28;;;;;;;19.17;14.27;;;;;;;0.26;59.88;101234.22;10402668;28;20241;-63
2023/01/23 02:41:42;;;;;;;18.23;13.43;;;;;;;1.82;57.87;101325.78;10411928;28;20902;-62
2023/01/23 02:46:44;;;;;;;18.10;12.83;;;;;;;0.69;59.01;101276.66;10408674;28;20238;-63
2023/01/23 02:51:46;;;;;;;18.40;12.87;;;;;;;0.76;59.59;101279.81;10408404;28;20821;-63
2023/01/23 02:56:48;;;;;;;19.00;13.80;;;;;;;0.62;58.69;101264.78;10406487;28;20240;-63
2023/01/23 03:01:50;;;;;;;17.70;13.40;;;;;;;0.80;58.93;101268.19;10408213;28;20606;-63
2023/01/23 03:06:51;;;;;;;19.30;13.70;;;;;;;0.19;59.93;101251.28;10405266;28;20239;-62
2023/01/23 03:11:53;;;;;;;21.47;14.03;;;;;;;0.53;59.49;101257.38;10412540;28;20261;-63
2023/01/23 03:16:55;;;;;;;20.77;14.03;;;;;;;-0.39;61.07;101227.97;10411284;28;20431;-62
2023/01/23 03:21:57;;;;;;;19.73;14.10;;;;;;;0.72;59.48;101270.41;10404670;28;20242;-63
2023/01/23 03:26:58;;;;;;;22.90;13.57;;;;;;;-0.03;60.59;101254.16;10396856;28;20230;-63
2023/01/23 03:32:01;;;;;;;17.80;13.73;;;;;;;0.78;59.23;101283.25;10403654;28;20240;-63
2023/01/23 03:37:03;;;;;;;21.20;13.77;;;;;;;0.17;60.45;101266.28;10404352;28;21017;-62
2023/01/23 03:42:05;;;;;;;20.30;14.20;;;;;;;0.38;60.46;101260.84;10409706;28;20688;-63
2023/01/23 03:47:07;;;;;;;21.27;14.53;;;;;;;-0.94;62.77;101221.84;10410063;28;20247;-63
2023/01/23 03:52:09;;;;;;;24.87;15.33;;;;;;;-0.63;62.50;101220.34;10411602;28;20237;-63
2023/01/23 03:57:10;;;;;;;27.00;16.70;;;;;;;-0.65;62.65;101223.03;10418393;28;20234;-63
2023/01/23 04:02:12;;;;;;;25.47;15.93;;;;;;;-0.26;61.08;101216.72;10420802;28;20293;-63
2023/01/23 04:07:14;;;;;;;25.37;16.77;;;;;;;-0.52;62.79;101220.69;10415555;28;20708;-63
2023/01/23 04:12:16;;;;;;;24.03;15.87;;;;;;;0.25;61.77;101227.22;10416461;28;21059;-63
2023/01/23 04:17:17;;;;;;;22.30;14.17;;;;;;;-0.31;61.65;101228.44;10409849;28;20234;-62
2023/01/23 04:22:19;;;;;;;23.60;14.67;;;;;;;0.17;61.48;101232.06;10414772;28;20723;-61
2023/01/23 04:27:21;;;;;;;25.37;14.80;;;;;;;-0.02;61.46;101245.34;10411490;28;20238;-62
2023/01/23 04:32:23;;;;;;;22.93;14.33;;;;;;;-0.06;61.71;101254.34;10407978;28;20238;-63
2023/01/23 04:37:25;;;;;;;20.97;14.73;;;;;;;0.10;61.16;101255.22;10407255;28;20695;-63
2023/01/23 04:42:27;;;;;;;22.57;13.70;;;;;;;0.18;61.32;101267.16;10402763;28;20246;-62
2023/01/23 19:07:02;;;;;;;12.83;9.83;;;;;;;-0.46;62.20;101333.47;10381616;28;20559;-69
2023/01/23 19:12:29;;;;;;;16.13;11.57;;;;;;;-0.91;62.71;101324.19;10381755;28;20892;-63
2023/01/23 19:18:02;;;;;;;14.30;11.27;;;;;;;-0.21;61.41;101328.78;10362190;28;20241;-69
2023/01/23 19:23:12;;;;;;;16.20;11.33;;;;;;;-0.40;61.83;101334.09;10374450;28;20228;-68
2023/01/23 19:28:14;;;;;;;14.07;10.90;;;;;;;-0.10;61.57;101337.84;10388285;28;20895;-66
2023/01/23 19:33:17;;;;;;;14.87;11.70;;;;;;;-0.76;62.82;101329.66;10386296;28;20232;-66
2023/01/23 19:38:19;;;;;;;14.90;10.50;;;;;;;-1.58;63.32;101301.84;10393174;28;20571;-65
2023/01/23 19:43:23;;;;;;;13.47;11.30;;;;;;;-1.18;63.56;101321.06;10393572;28;20235;-65
2023/01/23 19:48:26;;;;;;;14.53;11.07;;;;;;;-0.49;62.46;101328.34;10393360;28;20235;-65
2023/01/23 19:53:27;;;;;;;15.03;11.60;;;;;;;-1.55;63.90;101310.44;10395801;28;20868;-66
2023/01/23 19:58:29;;;;;;;14.13;11.23;;;;;;;-1.04;62.71;101321.28;10398658;28;20236;-66
2023/01/23 20:03:34;;;;;;;14.80;10.80;;;;;;;-0.77;62.94;101315.66;10390251;28;20756;-68
2023/01/23 20:08:36;;;;;;;14.77;11.63;;;;;;;-0.65;61.30;101319.47;10401075;28;20354;-68
2023/01/23 20:13:41;;;;;;;17.17;13.17;;;;;;;-1.15;62.42;101301.69;10401043;28;20234;-67
2023/01/23 20:18:46;;;;;;;12.57;10.07;;;;;;;-0.62;62.30;101320.19;10392469;28;20769;-67
2023/01/23 20:23:49;;;;;;;14.83;11.20;;;;;;;-1.59;63.23;101311.50;10397470;28;20330;-66
2023/01/23 20:28:55;;;;;;;12.73;10.37;;;;;;;-1.59;63.25;101293.13;10400117;28;20756;-67
2023/01/23 20:33:56;;;;;;;13.47;10.23;;;;;;;-0.91;62.45;101297.88;10390876;28;20242;-67
2023/01/23 20:38:58;;;;;;;13.70;10.67;;;;;;;-1.25;62.87;101309.97;10397033;28;20556;-66
2023/01/23 20:43:59;;;;;;;14.10;10.50;;;;;;;-0.87;62.75;101309.97;10348935;28;20244;-65
2023/01/23 20:49:01;;;;;;;13.00;9.97;;;;;;;-1.37;62.90;101300.03;10379281;28;20239;-64
2023/01/23 20:54:03;;;;;;;14.13;11.73;;;;;;;-1.50;63.17;101314.63;10382627;28;20254;-65
2023/01/23 20:59:17;;;;;;;12.00;9.73;;;;;;;-1.32;62.87;101307.72;10385517;28;20266;-63
2023/01/23 21:04:20;;;;;;;13.90;10.57;;;;;;;-1.68;62.83;101309.28;10426166;28;20274;-63
2023/01/23 21:09:22;;;;;;;15.93;11.33;;;;;;;-1.34;62.70;101313.03;10437326;28;20249;-71
2023/01/23 21:14:24;;;;;;;14.13;11.33;;;;;;;-1.64;63.34;101297.72;10417830;28;20775;-66
2023/01/23 21:19:26;;;;;;;16.57;11.93;;;;;;;-0.51;62.25;101318.84;10419847;28;20236;-65
2023/01/23 21:24:28;;;;;;;16.97;11.77;;;;;;;-1.13;62.27;101315.59;10441456;28;20231;-65
2023/01/23 21:29:30;;;;;;;16.37;12.47;;;;;;;-0.88;62.65;101318.78;10440491;28;20993;-65
2023/01/23 21:34:32;;;;;;;13.53;10.33;;;;;;;-0.66;61.20;101329.13;10434317;28;20236;-65
2023/01/23 21:39:33;;;;;;;19.77;14.83;;;;;;;-1.85;62.85;101309.16;10428526;28;20241;-64
2023/01/23 21:44:35;;;;;;;13.23;10.90;;;;;;;0.09;61.07;101368.50;10440901;28;20230;-64
2023/01/23 21:49:37;;;;;;;14.80;11.77;;;;;;;-0.54;61.46;101351.38;10437623;28;20237;-67
2023/01/23 21:54:40;;;;;;;15.10;10.87;;;;;;;-0.64;61.49;101357.97;10419341;22;20236;-35
2023/01/23 22:01:30;;;;;;;14.83;11.57;;;;;;;-0.46;61.68;101356.28;10404777;28;20230;-35
2023/01/23 22:05:04;;;;;;;14.67;9.80;;;;;;;-0.63;61.84;101359.69;10396752;28;20242;-35
2023/01/23 22:10:06;;;;;;;15.10;11.70;;;;;;;0.05;60.96;101374.84;10397955;28;20306;-35
2023/01/23 22:15:08;;;;;;;13.67;10.63;;;;;;;-0.65;61.93;101361.56;10398919;28;20247;-35
2023/01/23 22:20:11;;;;;;;15.27;11.00;;;;;;;0.05;60.92;101394.13;10398218;28;20591;-35
2023/01/23 22:25:13;;;;;;;13.53;10.47;;;;;;;-0.16;61.36;101380.25;10398154;28;20239;-35
2023/01/23 22:30:15;;;;;;;13.60;11.00;;;;;;;0.04;60.17;101412.63;10396541;28;20266;-35
2023/01/23 22:35:17;;;;;;;14.87;11.00;;;;;;;0.48;59.80;101438.53;10397138;28;20245;-35
2023/01/23 22:40:19;;;;;;;14.70;10.83;;;;;;;-0.13;60.67;101414.31;10399083;28;20244;-35
2023/01/23 22:45:20;;;;;;;14.00;12.20;;;;;;;-0.10;61.14;101411.53;10404092;28;20244;-35
2023/01/23 22:50:23;;;;;;;18.83;12.60;;;;;;;0.49;60.37;101440.22;10396967;28;20243;-35
2023/01/23 22:55:25;;;;;;;15.23;11.17;;;;;;;-0.59;61.30;101384.91;10397282;28;20235;-35
2023/01/23 23:00:26;;;;;;;14.70;10.93;;;;;;;1.27;58.58;101506.50;10394823;28;20243;-35
2023/01/23 23:05:28;;;;;;;15.27;11.47;;;;;;;-0.27;61.81;101383.38;10392261;28;20247;-34
2023/01/23 23:10:30;;;;;;;15.13;11.57;;;;;;;-0.77;61.26;101370.88;10397495;28;20232;-35
2023/01/23 23:15:34;;;;;;;15.67;12.37;;;;;;;-0.44;61.83;101391.25;10395059;28;20243;-35
2023/01/23 23:20:35;;;;;;;18.37;14.00;;;;;;;0.65;59.21;101451.69;10398681;28;20244;-35
2023/01/23 23:25:37;;;;;;;16.53;11.93;;;;;;;-0.53;61.32;101392.56;10408366;28;20296;-35
2023/01/23 23:30:39;;;;;;;17.40;13.10;;;;;;;0.25;60.75;101435.25;10403319;28;20250;-35
2023/01/23 23:35:41;;;;;;;21.17;14.67;;;;;;;-0.32;61.92;101406.44;10394611;28;20236;-37
2023/01/23 23:40:51;;;;;;;24.33;14.50;;;;;;;0.43;59.90;101446.66;10406690;28;20246;-34
2023/01/23 23:45:56;;;;;;;27.47;18.50;;;;;;;-0.21;60.91;101403.31;10404554;28;20330;-37
2023/01/23 23:51:03;;;;;;;16.27;12.07;;;;;;;-1.01;61.98;101370.19;10403184;28;20914;-35
2023/01/23 23:56:06;;;;;;;17.63;13.07;;;;;;;0.41;60.23;101442.38;10402339;28;20319;-37
